TAF and METAR

No METAR available for Longana Airport

TAF for Longana Airport

TAF NVSG 210430Z 2106/2206 14010KT 9999 SCT020
Report created 21. jul 06:30

between 21. jul 08:00 - 22. jul 08:00

wind 10 knots from SE (140°) visibility > 10km scattered clouds (~50% cover) at 2000 feet